Terminal Aerodrome Forecast
Issued by NWS

Current Version | Previous Version | Text Only | Print | Product List | Glossary On
Versions: 1 2 3 4 5 6 7 8 9 10 11 12 13 14
681
FTUS44 KMAF 301727
TAFINK
TAF
KINK 301727Z 3018/0118 20010KT P6SM SKC
     FM010300 10008KT P6SM SKC
     FM011000 04012G20KT P6SM BKN015=

USA.gov is the U.S. government's official web portal to all federal, state and local government web resources and services.